Time;durP1;ratioP1;P1;durP2;ratioP2;P2;SDS_P1;SDS_P2;PMS_P1;PMS_P2;Temp;Humidity;BMP_temperature;BMP_pressure;BME280_temperature;BME280_humidity;BME280_pressure;Samples;Min_cycle;Max_cycle;Signal;HPM_P1;HPM_P2
2021/07/10 00:00:10;;;;;;;5.27;4.90;;;26.50;83.70;;;;;;6159758;23;20483;-94
2021/07/10 00:02:37;;;;;;;5.77;5.47;;;26.50;83.70;;;;;;6159493;23;20458;-94
2021/07/10 00:05:05;;;;;;;5.80;5.40;;;26.50;83.70;;;;;;6159070;23;20495;-94
2021/07/10 00:07:32;;;;;;;5.30;4.93;;;26.50;83.70;;;;;;6159804;23;20451;-94
2021/07/10 00:09:59;;;;;;;5.00;4.70;;;26.50;83.70;;;;;;6158589;23;20424;-94
2021/07/10 00:12:27;;;;;;;5.47;5.07;;;26.50;83.70;;;;;;6160311;23;20446;-94
2021/07/10 00:14:58;;;;;;;4.90;4.60;;;26.50;83.70;;;;;;6158953;23;20414;-94
2021/07/10 00:17:25;;;;;;;5.43;5.10;;;26.50;83.70;;;;;;6161591;23;20435;-93
2021/07/10 00:19:52;;;;;;;5.17;4.87;;;26.50;83.70;;;;;;6159421;23;20411;-94
2021/07/10 00:22:20;;;;;;;5.13;4.73;;;26.50;83.60;;;;;;6159631;23;20410;-94
2021/07/10 00:24:47;;;;;;;5.03;4.73;;;26.50;83.60;;;;;;6158161;23;20498;-94
2021/07/10 00:27:14;;;;;;;5.13;4.83;;;26.50;83.60;;;;;;6159809;23;20531;-94
2021/07/10 00:29:41;;;;;;;4.60;4.30;;;26.50;83.60;;;;;;6158542;23;20408;-94
2021/07/10 00:32:09;;;;;;;5.30;5.00;;;26.50;83.60;;;;;;6158020;23;20522;-94
2021/07/10 00:34:38;;;;;;;4.83;4.53;;;26.50;83.60;;;;;;6158770;23;20507;-94
2021/07/10 00:37:05;;;;;;;5.33;5.03;;;26.50;83.60;;;;;;6158819;23;20426;-93
2021/07/10 00:39:32;;;;;;;5.60;5.30;;;26.50;83.60;;;;;;6158553;23;20410;-94
2021/07/10 00:41:59;;;;;;;5.13;4.83;;;26.50;83.60;;;;;;6159449;23;20411;-94
2021/07/10 00:44:26;;;;;;;5.07;4.67;;;26.50;83.50;;;;;;6158592;23;20482;-94
2021/07/10 00:46:53;;;;;;;5.17;4.87;;;26.60;83.70;;;;;;6166071;23;20442;-94
2021/07/10 00:49:21;;;;;;;4.60;4.33;;;26.50;83.60;;;;;;6185327;23;20399;-93
2021/07/10 00:51:48;;;;;;;5.30;5.00;;;26.50;83.50;;;;;;6185545;23;20399;-95
2021/07/10 00:54:15;;;;;;;4.80;4.50;;;26.50;83.50;;;;;;6181631;23;20419;-94
2021/07/10 00:56:45;;;;;;;5.80;5.40;;;26.50;83.50;;;;;;6163596;23;20408;-94
2021/07/10 00:59:13;;;;;;;4.20;3.93;;;26.50;83.50;;;;;;6162057;23;20407;-94
2021/07/10 01:01:43;;;;;;;4.77;4.47;;;26.50;83.50;;;;;;6159924;23;20453;-94
2021/07/10 01:04:10;;;;;;;5.80;5.40;;;26.50;83.50;;;;;;6159152;23;20490;-94
2021/07/10 01:06:39;;;;;;;4.17;3.97;;;26.50;83.50;;;;;;6159340;23;20498;-94
2021/07/10 01:09:07;;;;;;;4.70;4.40;;;26.50;83.50;;;;;;6158644;23;20982;-94
2021/07/10 01:11:34;;;;;;;5.63;5.23;;;26.50;83.50;;;;;;6159063;23;20898;-94
2021/07/10 01:14:02;;;;;;;4.93;4.60;;;26.50;83.40;;;;;;6145718;23;20494;-94
2021/07/10 01:16:29;;;;;;;5.00;4.70;;;26.50;83.40;;;;;;6158398;23;20443;-94
2021/07/10 01:18:56;;;;;;;4.43;4.13;;;26.60;83.60;;;;;;6158663;23;20415;-94
2021/07/10 01:21:25;;;;;;;5.10;4.70;;;26.50;83.40;;;;;;6158515;23;20494;-94
2021/07/10 01:23:52;;;;;;;4.93;4.63;;;26.50;83.40;;;;;;6158235;23;20491;-94
2021/07/10 01:26:19;;;;;;;4.83;4.53;;;26.50;83.40;;;;;;6157788;23;20990;-94
2021/07/10 01:28:46;;;;;;;4.97;4.67;;;26.50;83.40;;;;;;6158218;23;20475;-94
2021/07/10 01:31:14;;;;;;;4.37;4.07;;;26.50;83.40;;;;;;6158445;23;20854;-94
2021/07/10 01:33:41;;;;;;;5.17;4.87;;;26.50;83.40;;;;;;6158009;23;20431;-94
2021/07/10 01:36:08;;;;;;;5.00;4.70;;;26.50;83.40;;;;;;6157416;23;20491;-95
2021/07/10 01:38:37;;;;;;;4.70;4.40;;;26.50;83.40;;;;;;6158799;23;20475;-94
2021/07/10 01:41:04;;;;;;;5.27;4.87;;;26.50;83.30;;;;;;6158452;23;20518;-94
2021/07/10 01:43:31;;;;;;;5.20;4.90;;;26.50;83.40;;;;;;6158925;23;20442;-94
2021/07/10 01:45:58;;;;;;;4.43;4.13;;;26.50;83.40;;;;;;6158739;23;20411;-94
2021/07/10 01:48:24;;;;;;;5.00;4.60;;;26.50;83.40;;;;;;6158910;23;20478;-94
2021/07/10 01:50:51;;;;;;;4.70;4.40;;;26.50;83.30;;;;;;6158397;23;20439;-94
2021/07/10 01:53:18;;;;;;;5.13;4.77;;;26.50;83.30;;;;;;6158827;23;20494;-94
2021/07/10 01:55:47;;;;;;;4.83;4.50;;;26.50;83.30;;;;;;6159747;23;20414;-92
2021/07/10 01:58:14;;;;;;;4.50;4.20;;;26.40;83.20;;;;;;6160817;23;20696;-93
2021/07/10 02:00:43;;;;;;;4.53;4.23;;;26.40;83.20;;;;;;6159688;23;20475;-93
2021/07/10 02:03:10;;;;;;;4.97;4.67;;;26.40;83.20;;;;;;6158911;23;20417;-94
2021/07/10 02:05:37;;;;;;;4.20;4.00;;;26.40;83.10;;;;;;6158066;23;20956;-93
2021/07/10 02:08:05;;;;;;;3.97;3.70;;;26.40;83.10;;;;;;6157689;23;20530;-93
2021/07/10 02:10:35;;;;;;;4.80;4.50;;;26.40;83.10;;;;;;6158191;23;20502;-94
2021/07/10 02:13:07;;;;;;;4.10;3.80;;;26.40;83.10;;;;;;6157953;23;20406;-94
2021/07/10 02:15:34;;;;;;;4.30;4.00;;;26.40;83.10;;;;;;6159029;23;20454;-94
2021/07/10 02:18:02;;;;;;;4.60;4.30;;;26.40;83.30;;;;;;6158188;23;20514;-94
2021/07/10 02:20:30;;;;;;;4.20;3.90;;;26.40;83.00;;;;;;6158587;23;20728;-94
2021/07/10 02:22:58;;;;;;;4.10;3.90;;;26.40;83.00;;;;;;6157751;23;20947;-94
2021/07/10 02:25:26;;;;;;;4.70;4.40;;;26.40;83.00;;;;;;6158088;23;20494;-93
2021/07/10 02:27:54;;;;;;;4.23;4.03;;;26.40;82.90;;;;;;6157839;23;20447;-94
2021/07/10 02:30:26;;;;;;;4.97;4.50;;;26.40;82.90;;;;;;6158043;23;20450;-94
2021/07/10 02:32:54;;;;;;;5.10;4.80;;;26.40;83.00;;;;;;6158635;23;20777;-94
2021/07/10 02:35:21;;;;;;;4.20;4.00;;;26.40;82.90;;;;;;6158135;23;20423;-94
2021/07/10 02:37:49;;;;;;;5.20;4.90;;;26.40;82.90;;;;;;6158173;23;20408;-94
2021/07/10 02:40:19;;;;;;;4.23;4.03;;;26.40;82.90;;;;;;6157708;23;20415;-93
2021/07/10 02:42:47;;;;;;;4.77;4.47;;;26.40;82.90;;;;;;6158390;23;20407;-95
2021/07/10 02:45:15;;;;;;;4.77;4.47;;;26.40;82.90;;;;;;6157676;23;20408;-94
2021/07/10 02:47:46;;;;;;;4.47;4.17;;;26.40;82.90;;;;;;6157763;23;20559;-94
2021/07/10 02:50:15;;;;;;;4.27;3.97;;;26.40;82.90;;;;;;6157864;23;20497;-94
2021/07/10 02:52:44;;;;;;;4.77;4.47;;;26.40;82.90;;;;;;6158542;23;20438;-94
2021/07/10 02:55:12;;;;;;;4.30;4.00;;;26.40;82.90;;;;;;6157325;23;20400;-94
2021/07/10 02:57:40;;;;;;;4.80;4.50;;;26.40;82.90;;;;;;6158411;23;20447;-94
2021/07/10 03:00:10;;;;;;;5.00;4.70;;;26.40;83.80;;;;;;6158125;23;20461;-94
2021/07/10 03:02:37;;;;;;;4.13;3.93;;;26.40;82.90;;;;;;6157308;23;20499;-95
2021/07/10 03:05:06;;;;;;;4.20;3.90;;;26.40;82.80;;;;;;6157815;23;20427;-93
2021/07/10 03:07:33;;;;;;;3.80;3.60;;;26.40;82.90;;;;;;6157985;23;20486;-94
2021/07/10 03:10:00;;;;;;;4.30;4.10;;;26.50;82.90;;;;;;6157340;23;20422;-94
2021/07/10 03:12:27;;;;;;;4.20;4.00;;;26.40;82.80;;;;;;6157598;23;20418;-94
2021/07/10 03:14:53;;;;;;;4.37;4.10;;;26.40;82.80;;;;;;6157099;23;20415;-94
2021/07/10 03:20:44;;;;;;;4.07;3.87;;;26.40;82.70;;;;;;6157186;23;20499;-94
2021/07/10 03:23:11;;;;;;;4.90;4.60;;;26.30;82.70;;;;;;6157249;23;20492;-93
2021/07/10 03:25:38;;;;;;;3.83;3.63;;;26.40;82.80;;;;;;6157039;23;20475;-94
2021/07/10 03:28:06;;;;;;;4.50;4.20;;;26.30;82.70;;;;;;6157006;23;20526;-93
2021/07/10 03:30:32;;;;;;;4.40;4.10;;;26.30;82.60;;;;;;6158786;23;20443;-94
2021/07/10 03:33:02;;;;;;;3.63;3.43;;;26.30;82.60;;;;;;6158282;23;20415;-94
2021/07/10 03:35:29;;;;;;;3.90;3.70;;;26.30;82.50;;;;;;6157883;23;20465;-93
2021/07/10 03:37:58;;;;;;;3.90;3.70;;;26.30;82.60;;;;;;6157912;23;20765;-94
2021/07/10 03:40:27;;;;;;;3.43;3.23;;;26.40;82.60;;;;;;6156985;23;20480;-94
2021/07/10 03:42:55;;;;;;;4.13;3.90;;;26.30;82.50;;;;;;6157443;23;20494;-94
2021/07/10 03:45:22;;;;;;;4.77;4.47;;;26.30;82.50;;;;;;6157676;23;20418;-94
2021/07/10 03:47:49;;;;;;;3.60;3.40;;;26.20;82.50;;;;;;6157245;23;20534;-95
2021/07/10 03:50:17;;;;;;;4.03;3.83;;;26.30;82.40;;;;;;6157417;23;20415;-93
2021/07/10 03:52:44;;;;;;;3.87;3.67;;;26.50;82.70;;;;;;6158456;23;20444;-94
2021/07/10 03:55:14;;;;;;;4.20;3.93;;;26.30;82.50;;;;;;6157514;23;20417;-94
2021/07/10 03:57:41;;;;;;;4.03;3.83;;;26.30;82.40;;;;;;6157273;23;20407;-94
2021/07/10 04:00:11;;;;;;;4.03;3.73;;;26.40;82.50;;;;;;6157506;23;20566;-94
2021/07/10 04:02:39;;;;;;;3.60;3.40;;;26.30;82.40;;;;;;6157372;23;20435;-94
2021/07/10 04:05:07;;;;;;;4.03;3.73;;;26.30;82.40;;;;;;6157381;23;20451;-93
2021/07/10 04:07:35;;;;;;;3.37;3.17;;;26.30;82.40;;;;;;6158700;23;20407;-94
2021/07/10 04:10:02;;;;;;;4.20;4.00;;;26.30;82.40;;;;;;6158692;23;20477;-94
2021/07/10 04:12:30;;;;;;;4.50;4.20;;;26.30;82.40;;;;;;6158894;23;20422;-94
2021/07/10 04:15:00;;;;;;;3.83;3.63;;;26.30;82.30;;;;;;6159464;23;20439;-94
2021/07/10 04:17:29;;;;;;;3.73;3.50;;;26.30;82.40;;;;;;6159858;23;20438;-93
2021/07/10 04:19:57;;;;;;;4.00;3.70;;;26.30;82.40;;;;;;6158649;23;20420;-93
2021/07/10 04:22:24;;;;;;;4.33;4.03;;;26.30;82.40;;;;;;6159043;23;20429;-94
2021/07/10 04:24:52;;;;;;;4.30;4.00;;;26.30;82.40;;;;;;6159904;23;20490;-94
2021/07/10 04:27:19;;;;;;;4.10;3.80;;;26.30;82.40;;;;;;6158685;23;20479;-94
2021/07/10 04:29:49;;;;;;;3.63;3.43;;;26.40;82.50;;;;;;6159538;23;20477;-94
2021/07/10 04:32:16;;;;;;;4.00;3.80;;;26.30;83.30;;;;;;6158625;23;20524;-93
2021/07/10 04:34:43;;;;;;;4.07;3.77;;;26.30;82.40;;;;;;6159128;23;20431;-94
2021/07/10 04:37:10;;;;;;;4.77;4.47;;;26.30;82.40;;;;;;6159916;23;20493;-94
2021/07/10 04:39:36;;;;;;;3.77;3.57;;;26.30;82.40;;;;;;6160064;23;20442;-94
2021/07/10 04:42:04;;;;;;;4.20;4.00;;;26.30;82.40;;;;;;6158417;23;20494;-93
2021/07/10 04:44:31;;;;;;;4.00;3.80;;;26.30;82.50;;;;;;6158132;23;20495;-94
2021/07/10 04:46:59;;;;;;;3.60;3.40;;;26.30;82.50;;;;;;6158722;23;20793;-94
2021/07/10 04:49:26;;;;;;;3.93;3.73;;;26.30;82.50;;;;;;6159077;23;20534;-94
2021/07/10 04:51:53;;;;;;;4.20;3.90;;;26.30;82.50;;;;;;6158648;23;20434;-94
2021/07/10 04:54:20;;;;;;;4.13;3.93;;;26.30;82.60;;;;;;6158956;23;20406;-93
2021/07/10 04:56:47;;;;;;;5.20;4.90;;;26.30;82.50;;;;;;6158631;23;20490;-94
2021/07/10 04:59:14;;;;;;;3.60;3.40;;;26.30;82.60;;;;;;6158807;23;20442;-94
2021/07/10 05:01:41;;;;;;;4.50;4.20;;;26.40;82.70;;;;;;6158410;23;20495;-94
2021/07/10 05:04:10;;;;;;;3.90;3.70;;;26.30;82.70;;;;;;6158450;23;20790;-94
2021/07/10 05:06:36;;;;;;;4.20;4.00;;;26.40;82.70;;;;;;6158734;23;20408;-94
2021/07/10 05:09:05;;;;;;;3.77;3.57;;;26.30;82.70;;;;;;6160197;23;20505;-91
2021/07/10 05:11:31;;;;;;;3.97;3.77;;;26.30;82.70;;;;;;6160140;23;20408;-94
2021/07/10 05:13:59;;;;;;;3.93;3.63;;;26.30;82.70;;;;;;6159562;23;20993;-94
2021/07/10 05:16:26;;;;;;;3.80;3.60;;;26.30;82.70;;;;;;6157834;23;20435;-94
2021/07/10 05:18:53;;;;;;;4.67;4.37;;;26.50;83.00;;;;;;6158133;23;20447;-94
2021/07/10 05:21:22;;;;;;;3.97;3.77;;;26.30;82.80;;;;;;6158334;23;20497;-94
2021/07/10 05:23:50;;;;;;;3.90;3.70;;;26.30;82.80;;;;;;6159617;23;20471;-94
2021/07/10 05:26:17;;;;;;;4.30;4.00;;;26.40;83.00;;;;;;6158641;23;20414;-95
2021/07/10 05:28:44;;;;;;;4.13;3.83;;;26.30;82.80;;;;;;6158580;23;20472;-94
2021/07/10 05:31:11;;;;;;;4.93;4.63;;;26.30;82.90;;;;;;6158014;23;20443;-94
2021/07/10 05:33:38;;;;;;;4.53;4.23;;;26.30;82.90;;;;;;6157918;23;20487;-93
2021/07/10 05:36:05;;;;;;;4.60;4.30;;;26.30;83.00;;;;;;6158898;23;20415;-93
2021/07/10 05:38:34;;;;;;;4.80;4.50;;;26.30;83.00;;;;;;6173940;23;20402;-94
2021/07/10 05:41:01;;;;;;;4.00;3.77;;;26.30;83.00;;;;;;6185040;23;20380;-94
2021/07/10 05:43:28;;;;;;;4.00;3.77;;;26.30;83.10;;;;;;6185136;23;20392;-94
2021/07/10 05:46:45;;;;;;;4.00;3.80;;;26.30;83.10;;;;;;6175886;23;20445;-94
2021/07/10 05:49:12;;;;;;;4.40;4.10;;;26.30;83.00;;;;;;6162355;23;20459;-93
2021/07/10 05:51:39;;;;;;;5.17;4.87;;;26.30;83.20;;;;;;6160683;23;20418;-94
2021/07/10 05:54:07;;;;;;;4.37;4.07;;;26.30;83.20;;;;;;6158932;23;20411;-93
2021/07/10 05:56:34;;;;;;;4.80;4.50;;;26.30;83.20;;;;;;6159562;23;20421;-93
2021/07/10 05:59:01;;;;;;;5.53;5.03;;;26.30;83.20;;;;;;6157834;23;20962;-93
2021/07/10 06:01:28;;;;;;;4.63;4.33;;;26.30;83.20;;;;;;6157927;23;20775;-93
2021/07/10 06:03:55;;;;;;;4.57;4.27;;;26.30;83.20;;;;;;6158107;23;20442;-93
2021/07/10 06:06:22;;;;;;;4.83;4.53;;;26.30;83.20;;;;;;6158143;23;20438;-94
2021/07/10 06:08:49;;;;;;;5.10;4.70;;;26.30;83.20;;;;;;6158217;23;20486;-94
2021/07/10 06:11:17;;;;;;;3.90;3.63;;;26.30;83.20;;;;;;6157877;23;20498;-94
2021/07/10 06:13:44;;;;;;;5.17;4.87;;;26.30;83.20;;;;;;6157716;23;20418;-94
2021/07/10 06:16:12;;;;;;;4.93;4.63;;;26.30;83.20;;;;;;6158627;23;20434;-94
2021/07/10 06:18:38;;;;;;;4.40;4.20;;;26.30;83.20;;;;;;6159127;23;20491;-94
2021/07/10 06:21:06;;;;;;;4.43;4.13;;;26.30;83.30;;;;;;6158297;23;20418;-94
2021/07/10 06:23:33;;;;;;;4.40;4.10;;;26.30;83.20;;;;;;6158287;23;20967;-94
2021/07/10 06:26:00;;;;;;;4.60;4.30;;;26.40;83.30;;;;;;6157363;23;20444;-94
2021/07/10 06:28:28;;;;;;;3.93;3.73;;;26.40;83.30;;;;;;6156941;23;20510;-94
2021/07/10 06:30:56;;;;;;;4.00;3.80;;;26.40;83.30;;;;;;6157381;23;20467;-94
2021/07/10 06:33:23;;;;;;;3.73;3.53;;;26.40;83.30;;;;;;6157288;23;20422;-94
2021/07/10 06:35:50;;;;;;;3.67;3.47;;;26.40;83.30;;;;;;6157901;23;20421;-94
2021/07/10 06:38:17;;;;;;;4.20;3.90;;;26.40;83.30;;;;;;6158006;23;20427;-94
2021/07/10 06:40:46;;;;;;;4.10;3.90;;;26.50;83.30;;;;;;6158531;23;20414;-96
2021/07/10 06:43:13;;;;;;;3.97;3.77;;;26.40;83.30;;;;;;6160052;23;20443;-90
2021/07/10 06:45:41;;;;;;;4.50;4.20;;;26.40;83.20;;;;;;6156928;23;20906;-91
2021/07/10 06:48:08;;;;;;;4.60;4.30;;;26.40;83.00;;;;;;6157627;23;20415;-91
2021/07/10 06:50:35;;;;;;;4.73;4.43;;;26.40;82.80;;;;;;6157376;23;20451;-92
2021/07/10 06:53:02;;;;;;;5.07;4.73;;;26.40;82.90;;;;;;6157595;23;20497;-93
2021/07/10 07:08:13;;;;;;;9.60;8.77;;;26.40;82.70;;;;;;6069418;23;20400;-95
2021/07/10 07:31:09;;;;;;;6.30;5.70;;;26.30;82.30;;;;;;6039467;23;20429;-96
2021/07/10 07:50:48;;;;;;;6.40;5.80;;;26.30;82.10;;;;;;5846303;24;20807;-96
2021/07/10 07:53:16;;;;;;;6.40;5.83;;;26.30;82.00;;;;;;5980063;23;20503;-89
2021/07/10 07:55:44;;;;;;;5.70;5.30;;;26.50;82.30;;;;;;6011241;23;20940;-89
2021/07/10 07:58:11;;;;;;;6.80;5.33;;;26.40;82.20;;;;;;6080089;23;20413;-90
2021/07/10 08:00:41;;;;;;;6.07;5.37;;;26.40;81.60;;;;;;6095470;23;20406;-90
2021/07/10 08:03:07;;;;;;;11.33;6.80;;;26.40;81.80;;;;;;6096083;23;20404;-89
2021/07/10 08:05:34;;;;;;;7.40;5.93;;;26.40;81.60;;;;;;6096538;23;20719;-89
2021/07/10 08:08:03;;;;;;;6.00;5.40;;;26.40;81.50;;;;;;6161943;23;20406;-90
2021/07/10 08:10:30;;;;;;;6.03;5.13;;;26.40;81.30;;;;;;6186979;23;20563;-90
2021/07/10 08:12:59;;;;;;;7.23;5.67;;;26.40;81.10;;;;;;6187325;23;20708;-90
2021/07/10 08:15:25;;;;;;;7.40;5.80;;;26.40;81.10;;;;;;6187153;23;20399;-90
2021/07/10 08:17:53;;;;;;;6.83;6.23;;;26.40;81.10;;;;;;6187441;23;20414;-90
2021/07/10 08:20:21;;;;;;;7.43;6.53;;;26.50;81.10;;;;;;6187540;23;20915;-90
2021/07/10 08:22:48;;;;;;;6.20;5.60;;;26.50;81.00;;;;;;6187372;23;20476;-89
2021/07/10 08:25:16;;;;;;;5.77;5.37;;;26.50;81.30;;;;;;6187611;23;20434;-90
2021/07/10 08:27:43;;;;;;;5.27;4.87;;;26.50;81.50;;;;;;6187686;23;20406;-90
2021/07/10 08:30:15;;;;;;;5.80;5.23;;;26.50;81.50;;;;;;6187736;23;20777;-90
2021/07/10 08:32:42;;;;;;;5.67;5.17;;;26.50;81.50;;;;;;6188475;23;20396;-90
2021/07/10 08:35:10;;;;;;;5.70;5.20;;;26.50;81.60;;;;;;6187630;23;20909;-89
2021/07/10 08:37:37;;;;;;;5.27;4.87;;;26.50;81.70;;;;;;6187587;23;20512;-90
2021/07/10 08:40:06;;;;;;;4.97;4.57;;;26.50;81.70;;;;;;6187717;23;20406;-90
2021/07/10 08:42:33;;;;;;;5.77;5.20;;;26.50;81.80;;;;;;6187287;23;20417;-90
2021/07/10 08:45:04;;;;;;;5.23;4.73;;;26.50;81.70;;;;;;6187979;23;20409;-90
2021/07/10 08:47:36;;;;;;;5.13;4.73;;;26.50;81.80;;;;;;6188845;23;20391;-95
2021/07/10 08:57:56;;;;;;;5.90;5.40;;;26.60;81.70;;;;;;6114786;23;20453;-96
2021/07/10 09:00:26;;;;;;;6.70;5.27;;;26.50;81.80;;;;;;6187889;23;20422;-91
2021/07/10 09:03:01;;;;;;;5.20;4.53;;;26.60;81.80;;;;;;6189179;23;20399;-93
2021/07/10 09:05:29;;;;;;;4.70;4.40;;;26.60;81.80;;;;;;6191096;23;20412;-93
2021/07/10 09:08:20;;;;;;;5.13;4.63;;;26.60;81.90;;;;;;6190554;23;20418;-93
2021/07/10 09:10:50;;;;;;;5.60;5.20;;;26.60;81.90;;;;;;6190263;23;20540;-93
2021/07/10 09:13:18;;;;;;;4.90;4.50;;;26.60;81.90;;;;;;6192219;23;20692;-93
2021/07/10 09:15:46;;;;;;;4.93;4.43;;;26.60;81.90;;;;;;6192546;23;20525;-93
2021/07/10 09:18:16;;;;;;;4.90;4.50;;;26.60;81.90;;;;;;6192049;23;20411;-93
2021/07/10 09:20:44;;;;;;;3.93;3.73;;;26.60;81.90;;;;;;6192871;23;20414;-93
2021/07/10 09:23:26;;;;;;;4.93;4.63;;;26.60;81.80;;;;;;6192255;23;20449;-93
2021/07/10 09:25:53;;;;;;;4.90;4.50;;;26.70;81.90;;;;;;6192633;23;20415;-93
2021/07/10 09:28:29;;;;;;;4.13;3.83;;;26.60;81.80;;;;;;6192931;23;20414;-93
2021/07/10 09:30:56;;;;;;;4.70;4.30;;;26.60;81.80;;;;;;6192015;23;20469;-92
2021/07/10 09:33:28;;;;;;;4.10;3.80;;;26.60;81.80;;;;;;6191991;23;20414;-93
2021/07/10 09:38:34;;;;;;;6.03;4.60;;;26.60;81.70;;;;;;6074496;23;20741;-93
2021/07/10 09:41:03;;;;;;;4.70;4.13;;;26.60;81.70;;;;;;6074606;23;20423;-93
2021/07/10 09:43:32;;;;;;;4.73;4.33;;;26.60;81.70;;;;;;6075330;23;20428;-93
2021/07/10 09:46:03;;;;;;;5.00;4.60;;;26.60;81.80;;;;;;6090131;23;20782;-94
2021/07/10 09:48:33;;;;;;;4.47;4.03;;;26.60;81.80;;;;;;6103550;23;20386;-95
2021/07/10 09:51:22;;;;;;;5.83;4.57;;;26.70;81.90;;;;;;6104158;23;20445;-94
2021/07/10 09:54:03;;;;;;;5.93;4.53;;;26.70;81.80;;;;;;6094506;23;20866;-94
2021/07/10 09:57:09;;;;;;;5.53;3.80;;;26.70;81.90;;;;;;6102643;23;20870;-94
2021/07/10 09:59:39;;;;;;;4.80;4.40;;;26.70;81.90;;;;;;6103485;23;20437;-93
2021/07/10 10:02:25;;;;;;;4.47;4.10;;;26.60;82.00;;;;;;6103950;23;20414;-94
2021/07/10 10:05:00;;;;;;;4.17;3.87;;;26.70;81.90;;;;;;6104319;23;20447;-94
2021/07/10 10:07:30;;;;;;;4.20;3.90;;;26.70;82.00;;;;;;6104973;23;20412;-94
2021/07/10 10:10:00;;;;;;;4.77;4.37;;;26.70;81.90;;;;;;6104246;23;20516;-94
2021/07/10 10:12:27;;;;;;;4.17;3.77;;;26.70;81.90;;;;;;6104295;23;20442;-94
2021/07/10 10:14:56;;;;;;;4.40;4.10;;;26.70;81.90;;;;;;6104578;23;20437;-93
2021/07/10 10:17:27;;;;;;;4.37;3.97;;;26.70;81.90;;;;;;6104936;23;20417;-94
2021/07/10 10:19:56;;;;;;;7.50;4.10;;;26.70;81.90;;;;;;6104537;23;20389;-94
2021/07/10 10:22:23;;;;;;;4.73;4.43;;;26.70;82.70;;;;;;6103934;23;20415;-93
2021/07/10 10:24:53;;;;;;;5.07;4.63;;;26.70;81.80;;;;;;6104229;23;20484;-94
2021/07/10 10:27:21;;;;;;;5.43;4.13;;;26.70;81.80;;;;;;6111707;23;20370;-94
2021/07/10 10:29:53;;;;;;;4.90;4.50;;;26.50;81.60;;;;;;6125128;23;20485;-94
2021/07/10 10:32:20;;;;;;;4.60;4.30;;;26.70;81.70;;;;;;6125254;23;20403;-94
2021/07/10 10:34:50;;;;;;;4.20;3.90;;;26.70;81.80;;;;;;6121627;23;20413;-94
2021/07/10 10:37:19;;;;;;;4.53;4.10;;;26.70;81.80;;;;;;6107742;23;20446;-94
2021/07/10 10:39:47;;;;;;;3.80;3.60;;;26.70;81.90;;;;;;6106223;23;20425;-96
2021/07/10 10:42:20;;;;;;;4.60;4.20;;;26.70;81.80;;;;;;6104784;23;20504;-96
2021/07/10 10:44:52;;;;;;;3.80;3.50;;;26.80;81.90;;;;;;6100384;23;20437;-96
2021/07/10 10:47:24;;;;;;;4.43;4.03;;;26.70;81.90;;;;;;6103452;23;20418;-94
2021/07/10 10:49:52;;;;;;;4.77;4.47;;;26.70;81.90;;;;;;6104432;23;20448;-93
2021/07/10 10:52:27;;;;;;;5.13;4.73;;;26.70;81.90;;;;;;6103681;23;20434;-95
2021/07/10 10:54:56;;;;;;;3.57;3.37;;;26.70;81.90;;;;;;6101287;23;20477;-96
2021/07/10 10:57:39;;;;;;;4.40;4.00;;;26.70;81.90;;;;;;6107239;23;20775;-96
2021/07/10 11:00:13;;;;;;;4.43;4.10;;;26.70;81.90;;;;;;6106237;23;20417;-96
2021/07/10 11:02:59;;;;;;;4.03;3.80;;;26.70;81.90;;;;;;6106038;23;20406;-96
2021/07/10 11:06:03;;;;;;;4.10;3.80;;;26.70;81.90;;;;;;6106323;23;20413;-96
2021/07/10 11:08:54;;;;;;;4.07;3.77;;;26.70;81.80;;;;;;6106308;23;20413;-96
2021/07/10 11:11:30;;;;;;;3.70;3.50;;;26.70;81.80;;;;;;6081220;23;20439;-96
2021/07/10 11:14:12;;;;;;;4.10;3.80;;;26.70;81.90;;;;;;6104609;23;20435;-96
2021/07/10 11:17:20;;;;;;;4.87;4.47;;;26.70;81.80;;;;;;6104066;23;20814;-96
2021/07/10 11:19:52;;;;;;;4.60;3.63;;;26.70;81.80;;;;;;6103822;23;20466;-96
2021/07/10 11:22:56;;;;;;;4.40;4.10;;;26.70;82.00;;;;;;6105080;23;20442;-96
2021/07/10 11:25:59;;;;;;;4.07;3.77;;;26.70;81.90;;;;;;6105763;23;20703;-96
2021/07/10 11:28:33;;;;;;;4.33;4.03;;;26.70;81.90;;;;;;6105071;23;20900;-96
2021/07/10 11:31:02;;;;;;;5.00;4.27;;;26.70;82.00;;;;;;6106240;23;20428;-96
2021/07/10 11:34:04;;;;;;;3.90;3.70;;;26.60;81.90;;;;;;6106248;23;20716;-96
2021/07/10 11:36:53;;;;;;;3.90;3.47;;;26.70;81.90;;;;;;6110171;23;20783;-96
2021/07/10 11:39:44;;;;;;;4.00;3.70;;;26.60;81.80;;;;;;6119860;23;20402;-94
2021/07/10 11:42:48;;;;;;;4.47;3.83;;;26.60;81.80;;;;;;6121941;23;20398;-95
2021/07/10 11:45:31;;;;;;;4.40;4.10;;;26.70;81.90;;;;;;6112095;23;20429;-96
2021/07/10 11:48:00;;;;;;;3.83;3.63;;;26.70;81.90;;;;;;6104416;23;20852;-96
2021/07/10 11:50:31;;;;;;;4.07;3.77;;;26.60;81.90;;;;;;6105134;23;20433;-96
2021/07/10 11:53:03;;;;;;;4.40;4.10;;;26.70;81.90;;;;;;6109941;23;20394;-95
2021/07/10 11:55:33;;;;;;;4.13;3.83;;;26.70;81.90;;;;;;6099912;23;20382;-96
2021/07/10 11:58:28;;;;;;;4.03;3.73;;;26.70;81.90;;;;;;6103668;23;20438;-96
2021/07/10 12:04:29;;;;;;;4.10;3.80;;;26.70;81.80;;;;;;6109525;23;20937;-96
2021/07/10 12:07:29;;;;;;;4.63;4.23;;;26.70;81.80;;;;;;6109120;23;20404;-96
2021/07/10 12:09:56;;;;;;;4.23;3.93;;;26.70;81.80;;;;;;6166769;23;20462;-93
2021/07/10 12:12:27;;;;;;;4.00;3.73;;;26.70;81.90;;;;;;6183166;23;20398;-96
2021/07/10 12:14:55;;;;;;;4.20;3.90;;;26.70;81.90;;;;;;6166798;23;20452;-96
2021/07/10 12:17:23;;;;;;;4.47;4.17;;;26.70;81.90;;;;;;6130318;23;20489;-96
2021/07/10 12:19:52;;;;;;;4.00;3.60;;;26.70;81.90;;;;;;6129146;23;20407;-94
2021/07/10 12:22:22;;;;;;;10.63;4.67;;;26.70;81.90;;;;;;6134912;23;20416;-96
2021/07/10 12:25:00;;;;;;;3.97;3.77;;;26.70;81.90;;;;;;6136209;23;20401;-96
2021/07/10 12:27:31;;;;;;;4.20;3.90;;;26.70;81.90;;;;;;6132842;23;20391;-96
2021/07/10 12:30:00;;;;;;;4.00;3.70;;;26.80;82.80;;;;;;6169665;23;20388;-96
2021/07/10 12:35:22;;;;;;;4.50;4.20;;;26.60;82.00;;;;;;6144330;23;20448;-96
2021/07/10 13:58:30;;;;;;;3.40;3.10;;;27.30;83.10;;;;;;6179315;23;20505;-90
2021/07/10 14:00:58;;;;;;;2.93;2.73;;;27.20;82.60;;;;;;6187633;23;20414;-91
2021/07/10 14:03:25;;;;;;;3.40;3.20;;;27.20;82.30;;;;;;6186838;23;20819;-91
2021/07/10 14:05:53;;;;;;;3.30;2.77;;;27.20;82.00;;;;;;6187153;23;20924;-94
2021/07/10 14:08:25;;;;;;;3.90;3.60;;;27.20;82.10;;;;;;6188583;23;20446;-94
2021/07/10 14:10:53;;;;;;;3.83;3.50;;;27.10;82.60;;;;;;6188378;23;20473;-86
2021/07/10 14:13:23;;;;;;;3.13;2.93;;;27.10;82.60;;;;;;6186853;23;20910;-86
2021/07/10 14:15:54;;;;;;;4.20;3.80;;;27.10;82.50;;;;;;6186421;23;20434;-86
2021/07/10 14:18:21;;;;;;;3.80;3.50;;;27.10;82.50;;;;;;6187031;23;20394;-86
2021/07/10 14:20:50;;;;;;;3.43;3.13;;;27.10;82.60;;;;;;6186482;23;20403;-86
2021/07/10 14:23:18;;;;;;;4.10;3.67;;;27.10;82.60;;;;;;6186380;23;20406;-86
2021/07/10 14:25:45;;;;;;;6.77;3.30;;;27.00;82.50;;;;;;6188916;23;20405;-95
2021/07/10 14:28:12;;;;;;;4.70;3.40;;;27.00;82.50;;;;;;6186424;23;20465;-87
2021/07/10 14:30:40;;;;;;;3.37;3.17;;;27.00;82.60;;;;;;6185918;23;20450;-87
2021/07/10 14:33:08;;;;;;;4.07;3.77;;;27.00;82.60;;;;;;6186007;23;20895;-86
2021/07/10 14:35:35;;;;;;;3.60;3.30;;;27.00;82.60;;;;;;6186778;23;20426;-86
2021/07/10 14:38:05;;;;;;;3.60;3.30;;;27.00;82.50;;;;;;6186715;23;20399;-87
2021/07/10 14:40:33;;;;;;;3.27;2.97;;;27.00;82.40;;;;;;6186897;23;20443;-86
2021/07/10 14:43:01;;;;;;;3.70;3.40;;;27.00;82.60;;;;;;6186924;23;20781;-86
2021/07/10 14:45:29;;;;;;;4.13;3.13;;;27.00;82.70;;;;;;6186222;23;20419;-85
2021/07/10 14:47:57;;;;;;;3.10;2.90;;;26.90;82.60;;;;;;6185650;23;20399;-86
2021/07/10 14:50:26;;;;;;;3.10;2.90;;;26.90;82.70;;;;;;6187123;23;20403;-87
2021/07/10 14:52:56;;;;;;;4.10;3.47;;;26.90;82.80;;;;;;6190588;23;20395;-86
2021/07/10 14:55:23;;;;;;;5.10;3.70;;;26.90;82.80;;;;;;6188934;23;20486;-85
2021/07/10 14:57:51;;;;;;;4.07;3.70;;;26.90;82.80;;;;;;6185875;23;20466;-86
2021/07/10 15:00:20;;;;;;;4.53;3.47;;;26.90;82.80;;;;;;6186256;23;20882;-86
2021/07/10 15:02:47;;;;;;;3.63;3.33;;;26.90;82.90;;;;;;6185804;23;20734;-86
2021/07/10 15:05:14;;;;;;;5.03;3.50;;;26.90;82.80;;;;;;6185971;23;20434;-86
2021/07/10 15:07:42;;;;;;;4.07;3.77;;;26.90;82.90;;;;;;6186233;23;20411;-87
2021/07/10 15:10:11;;;;;;;4.10;3.70;;;26.90;82.90;;;;;;6186139;23;20435;-87
2021/07/10 15:12:38;;;;;;;4.13;3.73;;;26.90;82.90;;;;;;6185867;23;20433;-86
2021/07/10 15:15:07;;;;;;;4.40;3.70;;;26.90;82.90;;;;;;6185540;23;20946;-86
2021/07/10 15:17:34;;;;;;;9.93;3.60;;;26.90;82.80;;;;;;6190532;23;20409;-87
2021/07/10 15:20:03;;;;;;;3.80;3.50;;;26.90;82.80;;;;;;6192572;23;20934;-86
2021/07/10 15:22:31;;;;;;;5.20;3.50;;;26.90;82.70;;;;;;6166005;23;20403;-83
2021/07/10 15:24:59;;;;;;;4.90;3.70;;;26.90;82.70;;;;;;6192466;23;20402;-87
2021/07/10 15:27:26;;;;;;;3.97;3.40;;;26.90;82.80;;;;;;6189452;23;20406;-86
2021/07/10 15:29:53;;;;;;;3.83;3.53;;;26.90;82.80;;;;;;6188121;23;20446;-87
2021/07/10 15:32:20;;;;;;;3.30;3.03;;;27.00;82.90;;;;;;6186439;23;20450;-86